createdAt,value
2022-10-21T00:00:42.603Z,66.17
2022-10-21T00:03:09.676Z,61.17
2022-10-21T00:05:36.691Z,59.40
2022-10-21T00:08:03.807Z,70.93
2022-10-21T00:10:31.103Z,76.47
2022-10-21T00:12:58.176Z,67.63
2022-10-21T00:15:25.254Z,63.17
2022-10-21T00:17:52.247Z,70.43
2022-10-21T00:20:19.664Z,74.00
2022-10-21T00:22:47.067Z,74.77
2022-10-21T00:25:14.153Z,80.93
2022-10-21T00:27:41.232Z,71.10
2022-10-21T00:30:09.472Z,104.17
2022-10-21T00:32:36.838Z,78.93
2022-10-21T00:35:05.635Z,75.47
2022-10-21T00:37:33.629Z,78.50
2022-10-21T00:40:00.627Z,69.13
2022-10-21T00:42:35.289Z,75.77
2022-10-21T00:45:23.666Z,77.40
2022-10-21T00:48:25.677Z,76.23
2022-10-21T00:50:59.339Z,78.73
2022-10-21T00:53:27.031Z,65.23
2022-10-21T00:56:01.654Z,79.43
2022-10-21T00:58:31.882Z,67.40
2022-10-21T01:01:01.822Z,81.37
2022-10-21T01:03:31.130Z,65.67
2022-10-21T01:06:01.409Z,74.67
2022-10-21T01:08:29.728Z,95.70
2022-10-21T01:10:57.736Z,87.73
2022-10-21T01:13:43.626Z,79.60
2022-10-21T01:16:48.366Z,72.93
2022-10-21T01:19:55.485Z,72.57
2022-10-21T01:23:27.017Z,76.73
2022-10-21T01:26:32.848Z,71.37
2022-10-21T01:29:34.967Z,68.17
2022-10-21T01:32:39.146Z,61.67
2022-10-21T01:35:58.421Z,60.17
2022-10-21T01:38:42.080Z,92.83
2022-10-21T01:41:27.443Z,83.80
2022-10-21T01:44:21.321Z,72.50
2022-10-21T01:47:00.760Z,83.17
2022-10-21T01:49:36.856Z,86.57
2022-10-21T01:52:05.326Z,81.90
2022-10-21T01:54:37.916Z,89.60
2022-10-21T01:57:08.088Z,92.73
2022-10-21T01:59:35.927Z,78.40
2022-10-21T02:02:05.744Z,83.13
2022-10-21T02:04:34.573Z,93.60
2022-10-21T02:07:02.019Z,102.53
2022-10-21T02:09:29.172Z,99.23
2022-10-21T02:12:00.119Z,97.30
2022-10-21T02:14:34.727Z,88.50
2022-10-21T02:17:02.886Z,82.73
2022-10-21T02:22:06.841Z,72.03
2022-10-21T02:24:57.835Z,84.73
2022-10-21T02:27:25.292Z,66.67
2022-10-21T02:29:57.221Z,77.03
2022-10-21T02:32:51.837Z,88.07
2022-10-21T02:36:03.652Z,75.83
2022-10-21T02:38:42.645Z,77.87
2022-10-21T02:41:13.575Z,75.00
2022-10-21T02:43:47.079Z,76.67
2022-10-21T02:46:15.082Z,84.10
2022-10-21T02:48:46.247Z,73.77
2022-10-21T02:51:14.104Z,78.37
2022-10-21T02:53:41.706Z,79.50
2022-10-21T02:56:09.412Z,71.03
2022-10-21T02:58:36.695Z,71.77
2022-10-21T03:01:03.883Z,63.93
2022-10-21T03:03:31.059Z,72.07
2022-10-21T03:05:58.288Z,64.50
2022-10-21T03:08:25.323Z,76.37
2022-10-21T03:10:53.509Z,86.20
2022-10-21T03:13:21.936Z,80.03
2022-10-21T03:15:50.211Z,77.03
2022-10-21T03:18:17.576Z,71.03
2022-10-21T03:20:44.836Z,77.20
2022-10-21T03:23:11.827Z,76.13
2022-10-21T03:25:38.862Z,83.10
2022-10-21T03:28:05.931Z,71.73
2022-10-21T03:30:32.956Z,72.93
2022-10-21T03:33:00.048Z,92.67
2022-10-21T03:35:27.771Z,85.30
2022-10-21T03:37:54.952Z,85.90
2022-10-21T03:40:23.848Z,78.07
2022-10-21T03:42:50.975Z,89.27
2022-10-21T03:45:18.056Z,95.40
2022-10-21T03:47:46.713Z,75.93
2022-10-21T03:50:16.572Z,94.17
2022-10-21T03:52:48.195Z,81.30
2022-10-21T03:55:15.330Z,103.13
2022-10-21T03:57:42.677Z,79.43
2022-10-21T04:00:10.856Z,91.80
2022-10-21T04:02:41.019Z,86.80
2022-10-21T04:05:09.040Z,81.27
2022-10-21T04:07:36.054Z,81.33
2022-10-21T04:10:03.282Z,73.90
2022-10-21T04:12:30.337Z,61.80
2022-10-21T04:14:57.397Z,75.97
2022-10-21T04:17:24.449Z,78.73
2022-10-21T04:19:51.460Z,74.60
2022-10-21T04:22:18.435Z,67.93
2022-10-21T04:24:45.647Z,76.40
2022-10-21T04:27:12.886Z,75.80
2022-10-21T04:29:39.874Z,74.37
2022-10-21T04:32:06.990Z,80.67
2022-10-21T04:34:34.492Z,98.87
2022-10-21T04:37:04.166Z,81.83
2022-10-21T04:39:32.565Z,70.63
2022-10-21T04:41:59.689Z,110.47
2022-10-21T04:44:26.767Z,96.93
2022-10-21T04:46:53.850Z,88.60
2022-10-21T04:49:21.122Z,93.27
2022-10-21T04:51:48.228Z,71.70
2022-10-21T04:54:15.348Z,69.70
2022-10-21T04:56:42.922Z,90.93
2022-10-21T04:59:10.055Z,81.40
2022-10-21T05:01:37.229Z,82.03
2022-10-21T05:04:04.468Z,75.90
2022-10-21T05:06:31.559Z,66.30
2022-10-21T05:08:58.649Z,72.37
2022-10-21T05:11:25.687Z,79.83
2022-10-21T05:13:52.700Z,80.43
2022-10-21T05:16:19.843Z,86.67
2022-10-21T05:18:46.853Z,70.67
2022-10-21T05:21:13.945Z,76.73
2022-10-21T05:23:41.825Z,84.67
2022-10-21T05:26:08.965Z,87.07
2022-10-21T05:28:36.535Z,78.83
2022-10-21T05:31:03.653Z,82.00
2022-10-21T05:33:30.775Z,91.30
2022-10-21T05:36:05.094Z,77.40
2022-10-21T05:38:32.411Z,71.13
2022-10-21T05:41:00.042Z,74.60
2022-10-21T05:43:28.287Z,95.57
2022-10-21T05:45:55.354Z,75.93
2022-10-21T05:48:22.759Z,80.73
2022-10-21T05:50:53.193Z,101.63
2022-10-21T05:53:22.081Z,115.13
2022-10-21T05:55:57.122Z,88.83
2022-10-21T05:58:25.485Z,124.33
2022-10-21T06:00:56.128Z,107.53
2022-10-21T06:03:24.585Z,121.63
2022-10-21T06:05:51.880Z,85.40
2022-10-21T06:08:18.878Z,82.50
2022-10-21T06:10:45.927Z,104.03
2022-10-21T06:13:12.965Z,107.07
2022-10-21T06:15:40.294Z,120.53
2022-10-21T06:18:07.422Z,106.13
2022-10-21T06:20:34.733Z,107.87
2022-10-21T06:23:01.791Z,150.60
2022-10-21T06:25:29.109Z,107.33
2022-10-21T06:27:56.143Z,124.07
2022-10-21T06:30:23.422Z,97.37
2022-10-21T06:32:51.400Z,97.73
2022-10-21T06:35:18.430Z,83.73
2022-10-21T06:37:45.635Z,80.50
2022-10-21T06:40:12.852Z,65.63
2022-10-21T06:42:39.898Z,62.10
2022-10-21T06:45:07.660Z,53.13
2022-10-21T06:47:34.746Z,59.80
2022-10-21T06:50:03.551Z,55.27
2022-10-21T06:52:31.719Z,53.53
2022-10-21T06:54:58.831Z,42.20
2022-10-21T06:57:27.777Z,41.20
2022-10-21T06:59:54.908Z,48.10
2022-10-21T07:02:24.210Z,46.57
2022-10-21T07:04:52.835Z,42.23
2022-10-21T07:07:20.042Z,41.43
2022-10-21T07:09:47.137Z,49.27
2022-10-21T07:12:14.223Z,43.53
2022-10-21T07:14:41.206Z,48.00
2022-10-21T07:17:08.372Z,45.93
2022-10-21T07:19:35.446Z,53.07
2022-10-21T07:22:02.459Z,49.90
2022-10-21T07:24:29.498Z,44.97
2022-10-21T07:26:56.538Z,44.90
2022-10-21T07:29:23.629Z,41.97
2022-10-21T07:31:50.927Z,32.90
2022-10-21T07:34:18.012Z,34.00
2022-10-21T07:36:48.431Z,31.80
2022-10-21T07:39:17.392Z,38.57
2022-10-21T07:41:49.599Z,33.27
2022-10-21T07:44:18.655Z,41.00
2022-10-21T07:46:46.805Z,40.50
2022-10-21T07:49:14.197Z,36.77
2022-10-21T07:51:42.107Z,42.40
2022-10-21T07:54:10.516Z,53.33
2022-10-21T07:56:43.054Z,62.53
2022-10-21T07:59:13.151Z,38.90
2022-10-21T08:01:50.687Z,18.10
2022-10-21T08:04:20.187Z,6.20
2022-10-21T08:06:48.444Z,5.13
2022-10-21T08:09:16.486Z,6.47
2022-10-21T08:11:44.031Z,11.10
2022-10-21T08:14:11.859Z,12.10
2022-10-21T08:16:39.634Z,23.90
2022-10-21T08:19:07.586Z,18.03
2022-10-21T08:21:36.366Z,9.63
2022-10-21T08:24:04.330Z,15.87
2022-10-21T08:26:31.421Z,13.30
2022-10-21T08:31:30.867Z,10.33
2022-10-21T08:33:59.179Z,10.83
2022-10-21T08:36:26.811Z,18.10
2022-10-21T08:38:54.996Z,8.77
2022-10-21T08:41:51.863Z,13.97
2022-10-21T08:44:31.317Z,16.27
2022-10-21T08:47:28.031Z,19.80
2022-10-21T08:50:03.829Z,14.87
2022-10-21T08:52:42.306Z,16.70
2022-10-21T08:55:32.471Z,21.77
2022-10-21T08:58:00.707Z,14.07
2022-10-21T09:00:44.519Z,12.27
2022-10-21T09:03:24.854Z,13.27
2022-10-21T09:06:13.681Z,14.47
2022-10-21T09:08:56.600Z,12.73
2022-10-21T09:11:32.152Z,16.60
2022-10-21T09:14:18.307Z,15.60
2022-10-21T09:17:12.026Z,15.87
2022-10-21T09:19:48.911Z,13.33
2022-10-21T09:22:55.061Z,17.50
2022-10-21T09:25:31.620Z,13.43
2022-10-21T09:28:01.185Z,15.17
2022-10-21T09:30:28.425Z,11.63
2022-10-21T09:33:00.197Z,17.70
2022-10-21T09:35:51.858Z,20.03
2022-10-21T09:38:30.827Z,8.77
2022-10-21T09:41:03.519Z,11.97
2022-10-21T09:43:31.393Z,14.93
2022-10-21T09:45:58.794Z,18.23
2022-10-21T09:48:42.660Z,11.10
2022-10-21T09:51:34.434Z,13.47
2022-10-21T09:54:16.996Z,8.87
2022-10-21T09:57:09.471Z,9.70
2022-10-21T09:59:49.713Z,13.47
2022-10-21T10:02:18.789Z,10.57
2022-10-21T10:04:47.222Z,10.10
2022-10-21T10:07:35.675Z,8.63
2022-10-21T10:10:24.533Z,10.13
2022-10-21T10:12:58.716Z,10.10
2022-10-21T10:15:36.543Z,5.87
2022-10-21T10:18:04.762Z,5.63
2022-10-21T10:20:31.789Z,6.60
2022-10-21T10:23:09.691Z,5.37
2022-10-21T10:25:38.903Z,5.97
2022-10-21T10:28:26.374Z,6.73
2022-10-21T10:30:56.067Z,3.50
2022-10-21T10:33:32.476Z,9.03
2022-10-21T10:36:09.309Z,5.23
2022-10-21T10:38:41.241Z,7.03
2022-10-21T10:41:15.427Z,10.77
2022-10-21T10:43:55.795Z,9.00
2022-10-21T10:46:35.655Z,9.53
2022-10-21T10:49:22.635Z,7.97
2022-10-21T10:52:14.232Z,6.77
2022-10-21T10:54:43.200Z,7.87
2022-10-21T10:57:34.321Z,10.23
2022-10-21T11:00:23.302Z,5.80
2022-10-21T11:03:09.936Z,9.43
2022-10-21T11:06:03.218Z,4.00
2022-10-21T11:08:39.036Z,5.57
2022-10-21T11:11:28.856Z,7.00
2022-10-21T11:13:57.559Z,7.03
2022-10-21T11:17:10.127Z,6.97
2022-10-21T11:20:15.191Z,5.07
2022-10-21T11:23:20.109Z,7.90
2022-10-21T11:25:57.359Z,8.70
2022-10-21T11:28:39.887Z,4.07
2022-10-21T11:32:10.721Z,5.53
2022-10-21T11:35:25.269Z,6.00
2022-10-21T11:38:47.845Z,9.10
2022-10-21T11:41:49.356Z,5.20
2022-10-21T11:44:30.984Z,12.80
2022-10-21T11:47:18.543Z,5.57
2022-10-21T11:50:03.772Z,9.23
2022-10-21T12:11:43.921Z,5.20
2022-10-21T12:14:44.049Z,5.87
2022-10-21T12:17:22.093Z,5.27
2022-10-21T12:20:00.424Z,10.53
2022-10-21T12:22:29.967Z,5.90
2022-10-21T12:25:31.987Z,6.97
2022-10-21T12:28:55.068Z,7.27
2022-10-21T12:31:51.941Z,9.03
2022-10-21T12:34:19.129Z,6.87
2022-10-21T12:36:52.119Z,8.37
2022-10-21T12:40:09.190Z,4.77
2022-10-21T12:45:37.542Z,7.10
2022-10-21T12:48:20.015Z,5.73
2022-10-21T12:51:00.517Z,7.30
2022-10-21T12:53:56.698Z,8.27
2022-10-21T12:59:47.377Z,11.00
2022-10-21T13:02:25.018Z,6.60
2022-10-21T13:04:55.129Z,6.83
2022-10-21T13:07:31.064Z,4.37
2022-10-21T13:10:22.749Z,6.93
2022-10-21T13:12:49.894Z,8.20
2022-10-21T13:15:45.284Z,9.00
2022-10-21T13:18:12.371Z,6.07
2022-10-21T13:20:46.673Z,14.47
2022-10-21T13:23:37.177Z,5.43
2022-10-21T13:26:11.252Z,7.60
2022-10-21T13:28:38.612Z,6.03
2022-10-21T13:31:05.961Z,6.43
2022-10-21T13:33:36.794Z,9.30
2022-10-21T13:36:13.052Z,4.93
2022-10-21T13:38:50.448Z,9.90
2022-10-21T13:41:26.013Z,10.53
2022-10-21T13:44:24.857Z,6.90
2022-10-21T13:46:52.018Z,6.30
2022-10-21T13:49:30.912Z,6.20
2022-10-21T13:51:58.328Z,4.90
2022-10-21T13:54:25.380Z,5.50
2022-10-21T13:56:52.459Z,13.23
2022-10-21T13:59:34.698Z,9.93
2022-10-21T14:02:02.248Z,5.73
2022-10-21T14:04:31.904Z,9.67
2022-10-21T14:07:08.985Z,9.50
2022-10-21T14:09:48.381Z,8.60
2022-10-21T14:12:46.128Z,7.43
2022-10-21T14:15:19.881Z,12.40
2022-10-21T14:17:58.234Z,9.63
2022-10-21T14:20:37.367Z,8.00
2022-10-21T14:23:15.990Z,6.20
2022-10-21T14:25:43.487Z,8.03
2022-10-21T14:28:12.287Z,7.97
2022-10-21T14:30:39.859Z,9.50
2022-10-21T14:33:15.171Z,8.23
2022-10-21T14:35:43.033Z,11.93
2022-10-21T14:38:33.534Z,4.13
2022-10-21T14:41:05.589Z,5.70
2022-10-21T14:43:37.421Z,7.60
2022-10-21T14:46:08.043Z,6.13
2022-10-21T14:48:45.312Z,6.77
2022-10-21T14:51:17.750Z,8.27
2022-10-21T14:54:02.062Z,11.67
2022-10-21T14:56:40.623Z,8.27
2022-10-21T14:59:24.108Z,12.40
2022-10-21T15:01:52.041Z,11.33
2022-10-21T15:04:42.359Z,8.97
2022-10-21T15:07:39.242Z,7.73
2022-10-21T15:10:17.418Z,11.20
2022-10-21T15:12:53.691Z,12.07
2022-10-21T15:15:54.143Z,12.37
2022-10-21T15:18:47.743Z,10.73
2022-10-21T15:21:36.168Z,12.13
2022-10-21T15:24:04.483Z,16.87
2022-10-21T15:26:39.276Z,15.33
2022-10-21T15:29:18.309Z,13.93
2022-10-21T15:31:45.649Z,11.20
2022-10-21T15:34:15.277Z,15.90
2022-10-21T15:36:43.012Z,14.07
2022-10-21T15:39:10.832Z,12.23
2022-10-21T15:41:38.552Z,12.97
2022-10-21T15:44:19.148Z,14.03
2022-10-21T15:46:47.239Z,14.63
2022-10-21T15:49:20.637Z,13.17
2022-10-21T15:51:48.677Z,10.60
2022-10-21T15:54:17.420Z,20.93
2022-10-21T15:56:46.195Z,13.47
2022-10-21T15:59:31.254Z,19.70
2022-10-21T16:01:58.928Z,13.57
2022-10-21T16:04:26.168Z,10.20
2022-10-21T16:06:53.868Z,14.57
2022-10-21T16:09:26.879Z,12.53
2022-10-21T16:12:01.064Z,20.10
2022-10-21T16:14:30.694Z,18.20
2022-10-21T16:16:59.586Z,16.70
2022-10-21T16:19:26.716Z,13.27
2022-10-21T16:21:53.957Z,20.47
2022-10-21T16:24:21.059Z,18.10
2022-10-21T16:26:49.553Z,21.97
2022-10-21T16:29:20.495Z,18.20
2022-10-21T16:31:47.787Z,18.63
2022-10-21T16:34:14.796Z,8.80
2022-10-21T16:36:42.380Z,18.73
2022-10-21T16:39:18.401Z,14.37
2022-10-21T16:41:45.598Z,10.27
2022-10-21T16:44:12.822Z,16.80
2022-10-21T16:46:54.499Z,31.83
2022-10-21T16:49:24.093Z,11.50
2022-10-21T16:51:54.670Z,6.90
2022-10-21T16:54:22.899Z,14.33
2022-10-21T16:56:52.205Z,20.13
2022-10-21T16:59:21.921Z,11.10
2022-10-21T17:01:49.122Z,17.97
2022-10-21T17:04:16.173Z,14.20
2022-10-21T17:06:43.234Z,18.13
2022-10-21T17:09:10.988Z,13.53
2022-10-21T17:11:40.224Z,13.77
2022-10-21T17:14:09.950Z,10.63
2022-10-21T17:16:37.024Z,12.90
2022-10-21T17:19:04.168Z,15.73
2022-10-21T17:21:32.795Z,16.80
2022-10-21T17:24:01.666Z,19.47
2022-10-21T17:26:30.330Z,11.00
2022-10-21T17:28:57.925Z,14.27
2022-10-21T17:31:28.065Z,10.87
2022-10-21T17:33:58.184Z,13.20
2022-10-21T17:36:25.443Z,16.23
2022-10-21T17:38:52.535Z,10.07
2022-10-21T17:41:22.422Z,14.90
2022-10-21T17:43:49.490Z,10.60
2022-10-21T17:46:21.313Z,12.13
2022-10-21T17:48:57.315Z,14.87
2022-10-21T17:51:25.524Z,11.03
2022-10-21T17:53:53.730Z,20.33
2022-10-21T17:56:21.534Z,16.60
2022-10-21T17:58:56.272Z,8.67
2022-10-21T18:01:25.018Z,15.23
2022-10-21T18:03:53.186Z,10.67
2022-10-21T18:06:21.495Z,10.33
2022-10-21T18:08:48.791Z,16.67
2022-10-21T18:11:18.059Z,19.47
2022-10-21T18:13:45.893Z,12.50
2022-10-21T18:16:18.238Z,8.60
2022-10-21T18:18:46.520Z,15.67
2022-10-21T18:21:19.966Z,13.97
2022-10-21T18:23:52.353Z,9.63
2022-10-21T18:26:25.765Z,13.43
2022-10-21T18:28:58.349Z,11.30
2022-10-21T18:31:28.327Z,19.33
2022-10-21T18:33:56.313Z,13.80
2022-10-21T18:36:24.014Z,14.77
2022-10-21T18:38:51.166Z,11.70
2022-10-21T18:41:20.672Z,19.83
2022-10-21T18:44:01.451Z,25.03
2022-10-21T18:46:29.475Z,27.90
2022-10-21T18:48:56.693Z,14.07
2022-10-21T18:51:24.520Z,15.23
2022-10-21T18:53:52.986Z,12.40
2022-10-21T18:56:22.268Z,19.73
2022-10-21T18:58:50.243Z,23.50
2022-10-21T19:01:18.381Z,18.63
2022-10-21T19:03:45.997Z,19.97
2022-10-21T19:06:47.266Z,24.03
2022-10-21T19:09:22.762Z,16.70
2022-10-21T19:11:50.224Z,22.43
2022-10-21T19:14:17.654Z,18.07
2022-10-21T19:16:46.088Z,25.47
2022-10-21T19:19:14.698Z,24.00
2022-10-21T19:21:41.918Z,23.47
2022-10-21T19:24:09.977Z,22.80
2022-10-21T19:26:39.216Z,24.37
2022-10-21T19:29:09.637Z,26.83
2022-10-21T19:31:38.611Z,23.10
2022-10-21T19:34:06.994Z,26.63
2022-10-21T19:36:34.614Z,26.83
2022-10-21T19:39:01.628Z,20.67
2022-10-21T19:41:28.708Z,26.03
2022-10-21T19:43:59.504Z,28.80
2022-10-21T19:46:29.164Z,25.80
2022-10-21T19:48:56.389Z,26.70
2022-10-21T19:51:26.778Z,22.10
2022-10-21T19:53:54.972Z,25.63
2022-10-21T19:56:26.976Z,18.80
2022-10-21T19:58:55.799Z,23.00
2022-10-21T20:01:25.384Z,24.80
2022-10-21T20:03:53.525Z,37.73
2022-10-21T20:06:23.649Z,25.97
2022-10-21T20:08:51.379Z,23.17
2022-10-21T20:11:20.355Z,23.07
2022-10-21T20:13:48.679Z,30.87
2022-10-21T20:16:26.646Z,28.83
2022-10-21T20:18:55.323Z,33.37
2022-10-21T20:21:23.566Z,29.13
2022-10-21T20:23:51.743Z,34.20
2022-10-21T20:26:19.185Z,30.10
2022-10-21T20:28:46.578Z,31.23
2022-10-21T20:31:15.541Z,34.23
2022-10-21T20:33:44.883Z,30.73
2022-10-21T20:36:29.828Z,30.93
2022-10-21T20:38:58.952Z,29.40
2022-10-21T20:41:28.445Z,34.27
2022-10-21T20:43:55.533Z,40.40
2022-10-21T20:46:25.354Z,31.17
2022-10-21T20:48:54.154Z,26.97
2022-10-21T20:51:27.320Z,28.63
2022-10-21T20:54:06.440Z,33.70
2022-10-21T20:56:39.024Z,30.43
2022-10-21T20:59:07.379Z,34.50
2022-10-21T21:01:37.551Z,32.90
2022-10-21T21:04:10.457Z,35.23
2022-10-21T21:06:39.145Z,39.73
2022-10-21T21:11:53.972Z,36.17
2022-10-21T21:14:21.067Z,29.70
2022-10-21T21:16:48.112Z,31.30
2022-10-21T21:19:15.199Z,42.10
2022-10-21T21:21:42.194Z,45.60
2022-10-21T21:24:09.331Z,40.03
2022-10-21T21:26:38.646Z,44.90
2022-10-21T21:29:07.198Z,63.50
2022-10-21T21:31:36.814Z,36.17
2022-10-21T21:34:04.942Z,49.87
2022-10-21T21:36:32.205Z,44.50
2022-10-21T21:38:59.280Z,53.63
2022-10-21T21:41:27.287Z,37.57
2022-10-21T21:43:56.610Z,48.97
2022-10-21T21:46:24.247Z,53.60
2022-10-21T21:49:05.216Z,46.83
2022-10-21T21:51:33.968Z,55.43
2022-10-21T21:54:01.093Z,43.83
2022-10-21T21:56:28.339Z,42.43
2022-10-21T21:58:57.699Z,46.13
2022-10-21T22:01:27.202Z,61.10
2022-10-21T22:03:54.859Z,48.60
2022-10-21T22:06:23.657Z,71.37
2022-10-21T22:08:51.516Z,35.77
2022-10-21T22:11:22.515Z,60.10
2022-10-21T22:13:50.164Z,48.87
2022-10-21T22:16:17.827Z,41.10
2022-10-21T22:18:44.939Z,36.57
2022-10-21T22:21:16.299Z,36.20
2022-10-21T22:23:44.408Z,19.50
2022-10-21T22:26:12.983Z,18.67
2022-10-21T22:28:40.612Z,29.27
2022-10-21T22:31:11.011Z,21.77
2022-10-21T22:33:39.280Z,24.70
2022-10-21T22:36:07.134Z,32.63
2022-10-21T22:38:34.217Z,29.27
2022-10-21T22:41:02.929Z,26.60
2022-10-21T22:43:30.710Z,28.57
2022-10-21T22:46:05.002Z,33.77
2022-10-21T22:48:42.497Z,68.43
2022-10-21T22:51:09.549Z,67.10
2022-10-21T22:53:36.937Z,24.60
2022-10-21T22:56:05.365Z,12.67
2022-10-21T22:58:32.737Z,11.50
2022-10-21T23:01:01.442Z,5.50
2022-10-21T23:03:28.939Z,4.37
2022-10-21T23:05:56.264Z,3.67
2022-10-21T23:08:25.869Z,3.37
2022-10-21T23:10:53.264Z,6.43
2022-10-21T23:13:20.882Z,5.53
2022-10-21T23:15:48.768Z,4.93
2022-10-21T23:18:16.215Z,7.37
2022-10-21T23:20:43.659Z,6.13
2022-10-21T23:23:11.187Z,6.03
2022-10-21T23:25:38.712Z,5.53
2022-10-21T23:28:09.798Z,7.20
2022-10-21T23:30:37.812Z,5.83
2022-10-21T23:33:05.529Z,8.13
2022-10-21T23:35:33.020Z,4.83
2022-10-21T23:38:00.517Z,4.47
2022-10-21T23:40:28.825Z,8.57
2022-10-21T23:42:56.207Z,5.93
2022-10-21T23:45:23.642Z,5.23
2022-10-21T23:47:51.201Z,6.07
2022-10-21T23:50:18.701Z,8.10
2022-10-21T23:52:46.107Z,6.50
2022-10-21T23:55:13.794Z,5.67
2022-10-21T23:57:41.444Z,5.63
